Time;durP1;ratioP1;P1;durP2;ratioP2;P2;SDS_P1;SDS_P2;PMS_P1;PMS_P2;Temp;Humidity;BMP_temperature;BMP_pressure;BME280_temperature;BME280_humidity;BME280_pressure;Samples;Min_cycle;Max_cycle;Signal;HPM_P1;HPM_P2
2021/01/02 03:45:32;;;;;;;12.38;9.77;;;6.00;99.90;;;;;;6110815;23;20187;-82
2021/01/02 03:49:49;;;;;;;;;;;;;;;;;;;;;
2021/01/02 05:52:37;;;;;;;13.07;9.52;;;5.40;99.90;;;;;;5852333;24;20213;-79
2021/01/02 12:48:09;;;;;;;12.95;9.65;;;9.20;99.90;;;;;;6157815;23;20134;-79
2021/01/02 12:50:35;;;;;;;12.13;9.95;;;9.20;99.90;;;;;;6126475;23;20150;-79
2021/01/02 12:53:07;;;;;;;13.20;10.57;;;9.20;99.90;;;;;;6128058;23;20157;-79
2021/01/02 12:55:50;;;;;;;11.82;10.38;;;9.10;99.90;;;;;;6104068;23;20635;-79
2021/01/02 12:58:17;;;;;;;14.98;11.50;;;9.10;99.90;;;;;;6104289;23;20142;-79
2021/01/02 13:00:51;;;;;;;11.43;9.73;;;9.10;99.90;;;;;;6105156;23;20147;-79
2021/01/02 15:00:00;;;;;;;16.00;11.73;;;7.10;99.90;;;;;;6033637;23;20188;-78
2021/01/02 15:03:21;;;;;;;16.42;13.90;;;7.00;99.90;;;;;;6033514;23;20207;-80
2021/01/02 15:32:12;;;;;;;;;;;;;;;;;;;;;
2021/01/02 15:42:00;;;;;;;17.98;16.17;;;7.00;99.90;;;;;;6105084;23;20734;-83
2021/01/02 15:44:33;;;;;;;17.75;14.65;;;6.80;99.90;;;;;;6187599;23;20667;-82
2021/01/02 15:47:08;;;;;;;17.17;13.93;;;6.80;99.90;;;;;;6162351;23;20152;-83
2021/01/02 15:49:37;;;;;;;16.23;12.70;;;6.90;99.90;;;;;;6213519;23;20168;-82
2021/01/02 15:52:19;;;;;;;18.25;14.38;;;6.90;99.90;;;;;;6187302;23;20174;-83
2021/01/02 15:54:47;;;;;;;18.25;13.82;;;6.90;99.90;;;;;;6219460;23;20165;-83
2021/01/02 15:57:38;;;;;;;15.82;12.70;;;6.90;99.90;;;;;;6179709;23;20300;-82
2021/01/02 16:21:27;;;;;;;20.38;14.80;;;7.00;99.90;;;;;;6178820;23;20189;-85
2021/01/02 16:24:04;;;;;;;15.93;12.52;;;7.10;99.90;;;;;;6155864;23;20181;-83
2021/01/02 16:43:06;;;;;;;18.70;16.58;;;7.10;99.90;;;;;;6167196;22;20704;-82
2021/01/02 17:41:26;;;;;;;14.25;11.95;;;7.50;99.90;;;;;;6032256;23;20177;-78
2021/01/02 17:43:52;;;;;;;14.00;11.52;;;7.50;99.90;;;;;;6007713;23;20175;-78
2021/01/02 17:46:29;;;;;;;14.15;12.45;;;7.50;99.90;;;;;;6032081;23;20152;-78
2021/01/02 17:49:56;;;;;;;16.95;12.68;;;7.50;99.90;;;;;;6021012;23;20170;-79
2021/01/02 17:52:28;;;;;;;12.63;10.95;;;7.50;99.90;;;;;;6025577;23;20160;-78
2021/01/02 17:54:53;;;;;;;16.00;13.20;;;7.50;99.90;;;;;;6002585;23;20190;-78
2021/01/02 17:57:19;;;;;;;13.10;10.97;;;7.50;99.90;;;;;;6002552;23;20215;-78
2021/01/02 17:59:45;;;;;;;12.60;11.27;;;7.50;99.90;;;;;;6003855;23;20209;-78
2021/01/02 18:02:11;;;;;;;16.42;11.18;;;7.50;99.90;;;;;;6002303;23;20596;-78
2021/01/02 18:04:43;;;;;;;16.87;13.27;;;7.50;99.90;;;;;;6003462;23;20150;-78
2021/01/02 18:07:09;;;;;;;14.85;11.70;;;7.50;99.90;;;;;;6002310;23;20174;-78
2021/01/02 18:09:35;;;;;;;14.10;12.20;;;7.50;99.90;;;;;;5999928;23;20208;-78
2021/01/02 18:30:33;;;;;;;15.27;12.55;;;7.60;99.90;;;;;;6049007;23;20204;-78
2021/01/02 18:32:59;;;;;;;20.05;15.65;;;7.60;99.90;;;;;;6059985;23;20217;-78
2021/01/02 18:35:25;;;;;;;17.58;15.43;;;7.60;99.90;;;;;;6035469;23;20488;-77
2021/01/02 18:37:51;;;;;;;18.97;16.00;;;7.60;99.90;;;;;;6060129;23;20147;-78
2021/01/02 18:40:20;;;;;;;22.02;16.40;;;7.60;99.90;;;;;;6063458;23;20172;-78
2021/01/02 18:42:46;;;;;;;17.17;15.10;;;7.60;99.90;;;;;;6061154;23;20187;-77
2021/01/02 18:45:14;;;;;;;21.08;15.82;;;7.70;99.90;;;;;;6076872;23;20136;-78
2021/01/02 18:47:42;;;;;;;18.45;15.85;;;7.70;99.90;;;;;;6079827;23;20133;-78
2021/01/02 18:50:08;;;;;;;29.00;19.02;;;7.70;99.90;;;;;;6033535;23;20187;-79
2021/01/02 18:52:38;;;;;;;22.65;18.58;;;7.70;99.90;;;;;;6048881;23;20153;-78
2021/01/02 18:55:06;;;;;;;23.77;17.65;;;7.70;99.90;;;;;;6059773;23;20199;-78
2021/01/02 18:57:36;;;;;;;19.63;16.00;;;7.70;99.90;;;;;;6058463;23;20179;-77
2021/01/02 19:00:06;;;;;;;17.05;13.60;;;7.70;99.90;;;;;;6061846;23;20175;-77
2021/01/02 19:02:32;;;;;;;20.65;15.70;;;7.70;99.90;;;;;;6060423;23;20144;-80
2021/01/02 19:05:01;;;;;;;16.33;14.60;;;7.70;99.90;;;;;;6079320;23;20215;-77
2021/01/02 19:07:30;;;;;;;19.85;16.40;;;7.70;99.90;;;;;;6034689;23;20567;-77
2021/01/02 19:09:56;;;;;;;21.33;16.58;;;7.70;99.90;;;;;;6080263;23;20232;-76
2021/01/02 19:12:23;;;;;;;22.60;17.43;;;7.70;99.90;;;;;;6035216;23;20160;-76
2021/01/02 19:14:50;;;;;;;22.10;17.00;;;7.70;99.90;;;;;;6036644;23;20188;-77
2021/01/02 19:17:19;;;;;;;19.98;16.40;;;7.70;99.90;;;;;;6050332;23;20147;-78
2021/01/02 19:19:47;;;;;;;22.30;18.15;;;7.70;99.90;;;;;;6079895;23;20172;-78
2021/01/02 19:22:16;;;;;;;22.40;17.42;;;7.70;99.90;;;;;;6081592;23;20201;-78
2021/01/02 19:24:45;;;;;;;28.95;19.33;;;7.70;99.90;;;;;;6042151;23;20149;-78
2021/01/02 19:27:15;;;;;;;35.22;23.58;;;7.70;99.90;;;;;;6059307;23;20152;-79
2021/01/02 19:29:41;;;;;;;34.72;24.65;;;7.70;99.90;;;;;;6035709;23;20258;-78
2021/01/02 19:32:10;;;;;;;43.70;29.30;;;7.70;99.90;;;;;;6036815;23;20171;-78
2021/01/02 19:34:37;;;;;;;33.22;23.73;;;7.70;99.90;;;;;;6061198;23;20181;-78
2021/01/02 19:37:07;;;;;;;32.55;22.30;;;7.60;99.90;;;;;;6064905;23;20180;-78
2021/01/02 19:39:36;;;;;;;27.52;21.30;;;7.60;99.90;;;;;;6037374;23;20181;-79
2021/01/02 19:42:07;;;;;;;29.10;21.35;;;7.60;99.90;;;;;;6060775;23;20587;-77
2021/01/02 19:44:40;;;;;;;22.60;17.27;;;7.60;99.90;;;;;;6062100;23;20163;-78
2021/01/02 19:47:09;;;;;;;19.73;16.67;;;7.60;99.90;;;;;;6062692;23;20156;-78
2021/01/02 19:49:35;;;;;;;21.25;16.42;;;7.60;99.90;;;;;;6060762;23;20176;-79
2021/01/02 19:52:03;;;;;;;18.55;14.52;;;7.50;99.90;;;;;;6060127;23;20149;-78
2021/01/02 19:54:28;;;;;;;23.00;16.23;;;7.50;99.90;;;;;;6060398;23;20236;-78
2021/01/02 19:56:57;;;;;;;15.40;12.90;;;7.50;99.90;;;;;;6059671;23;20496;-78
2021/01/02 19:59:25;;;;;;;15.90;13.13;;;7.40;99.90;;;;;;6058684;23;20580;-77
2021/01/02 20:01:53;;;;;;;15.68;13.10;;;7.40;99.90;;;;;;6062565;23;20149;-78
2021/01/02 20:04:20;;;;;;;15.88;12.45;;;7.40;99.90;;;;;;6060426;23;20148;-77
2021/01/02 20:06:46;;;;;;;15.45;11.90;;;7.40;99.90;;;;;;6062051;23;20496;-78
2021/01/02 20:09:12;;;;;;;17.90;15.23;;;7.40;99.90;;;;;;6034266;23;21093;-77
2021/01/02 20:11:38;;;;;;;18.05;14.48;;;7.20;99.90;;;;;;6061297;23;20227;-78
2021/01/02 20:14:04;;;;;;;17.30;14.03;;;7.30;99.90;;;;;;6064113;23;20176;-78
2021/01/02 20:16:34;;;;;;;18.70;12.90;;;7.30;99.90;;;;;;6063593;23;20307;-77
2021/01/02 20:19:02;;;;;;;15.10;12.88;;;7.30;99.90;;;;;;6061743;23;20198;-77
2021/01/02 20:21:32;;;;;;;13.57;11.18;;;7.40;99.90;;;;;;6062102;23;20145;-78
2021/01/02 20:23:59;;;;;;;13.13;10.90;;;7.40;99.90;;;;;;6060717;23;20157;-78
2021/01/02 20:26:40;;;;;;;18.20;13.50;;;7.40;99.90;;;;;;6014156;23;20153;-77
2021/01/02 20:29:07;;;;;;;14.73;12.50;;;7.40;99.90;;;;;;6036764;23;20191;-78
2021/01/02 20:31:34;;;;;;;17.50;13.40;;;7.40;99.90;;;;;;6163846;23;20222;-78
2021/01/02 20:34:01;;;;;;;14.85;13.13;;;7.40;99.90;;;;;;6187420;23;20172;-77
2021/01/02 20:36:31;;;;;;;18.08;12.50;;;7.40;99.90;;;;;;6213329;23;20148;-77
2021/01/02 20:39:01;;;;;;;12.57;11.20;;;7.40;99.90;;;;;;6187089;23;20173;-78
2021/01/02 20:41:29;;;;;;;18.17;11.27;;;7.40;99.90;;;;;;6189184;23;20484;-78
2021/01/02 20:43:55;;;;;;;15.55;12.05;;;7.40;99.90;;;;;;6161398;23;20523;-77
2021/01/02 20:46:29;;;;;;;18.77;14.70;;;7.40;99.90;;;;;;6213334;23;20151;-77
2021/01/02 20:48:56;;;;;;;16.60;13.05;;;7.40;99.90;;;;;;6212644;23;20549;-77
2021/01/02 21:01:12;;;;;;;18.35;12.43;;;7.40;99.90;;;;;;5964100;24;20194;-78
2021/01/02 21:04:42;;;;;;;14.02;11.10;;;7.30;99.90;;;;;;5990823;23;20161;-78
2021/01/02 21:08:30;;;;;;;16.17;12.40;;;7.30;99.90;;;;;;5985661;23;20161;-78
2021/01/02 21:12:27;;;;;;;11.75;10.50;;;7.30;99.90;;;;;;6067284;23;20165;-78
2021/01/02 21:16:43;;;;;;;;;;;;;;;;;;;;;
2021/01/02 21:20:52;;;;;;;13.05;9.32;;;7.30;99.90;;;;;;6005430;23;20607;-78
2021/01/02 21:25:13;;;;;;;15.93;12.75;;;7.30;99.90;;;;;;5964410;23;20200;-77
2021/01/02 21:29:24;;;;;;;;;;;;;;;;;;;;;
2021/01/02 21:37:55;;;;;;;15.65;11.00;;;7.30;99.90;;;;;;5972165;23;20539;-77
2021/01/02 21:46:19;;;;;;;14.55;11.07;;;7.30;99.90;;;;;;6066564;23;20160;-76
2021/01/02 21:54:45;;;;;;;;;;;;;;;;;;;;;
2021/01/02 22:03:01;;;;;;;;;;;;;;;;;;;;;
2021/01/02 22:15:14;;;;;;;13.57;11.38;;;7.20;99.90;;;;;;6174651;23;20211;-77
